Bingham Farms, Michigan
Current Conditions -  °F | °C
As of 4:35 AM on Friday 31 Oct 2014 (Local Time) from KVLL Reporting Station
Overcast Overcast  
Wind Chill: 43°   Ceiling: 6000
Heat Index: 46°   Visibility: 10mi
Dew Point: 35°   Wind: 5mph
Humidity: 67%   Direction: 220°SW
Pressure: 29.94"   Gusts: NA
Location:  42.5206°N, 83.2664°W
Report Text: KVLL 310835Z AUTO 22004KT 10SM SCT035 BKN060 OVC120 08/02 A2994 RMK AO2 T00760019
Loading
Personal Weather Stations






























Interactive Weather Map
Tropical Storm Tracking
New forecast layout! Learn more

10-Day Weather Forecast

Advertisements
Track Severe Weather on mobile